sensor_id;sensor_type;location;lat;lon;timestamp;pressure;altitude;pressure_sealevel;temperature;humidity
59367;BME280;45163;47.690;11.770;2023-02-20T00:02:17;94253.41;;;5.31;100.00
59367;BME280;45163;47.690;11.770;2023-02-20T00:04:45;94265.75;;;5.25;100.00
59367;BME280;45163;47.690;11.770;2023-02-20T00:07:11;94278.09;;;5.19;100.00
59367;BME280;45163;47.690;11.770;2023-02-20T00:09:37;94276.50;;;5.14;100.00
59367;BME280;45163;47.690;11.770;2023-02-20T00:12:03;94272.25;;;5.17;100.00
59367;BME280;45163;47.690;11.770;2023-02-20T00:14:29;94276.91;;;5.20;100.00
59367;BME280;45163;47.690;11.770;2023-02-20T00:16:55;94264.59;;;5.22;100.00
59367;BME280;45163;47.690;11.770;2023-02-20T00:19:21;94270.75;;;5.23;100.00
59367;BME280;45163;47.690;11.770;2023-02-20T00:21:48;94262.66;;;5.27;100.00
59367;BME280;45163;47.690;11.770;2023-02-20T00:24:15;94263.03;;;5.25;100.00
59367;BME280;45163;47.690;11.770;2023-02-20T00:26:46;94258.41;;;5.25;100.00
59367;BME280;45163;47.690;11.770;2023-02-20T00:29:17;94249.97;;;5.38;100.00
59367;BME280;45163;47.690;11.770;2023-02-20T00:31:50;94265.81;;;5.36;100.00
59367;BME280;45163;47.690;11.770;2023-02-20T00:34:16;94259.97;;;5.30;100.00
59367;BME280;45163;47.690;11.770;2023-02-20T00:36:42;94273.13;;;5.28;100.00
59367;BME280;45163;47.690;11.770;2023-02-20T00:39:08;94264.19;;;5.24;100.00
59367;BME280;45163;47.690;11.770;2023-02-20T00:41:34;94271.13;;;5.21;100.00
59367;BME280;45163;47.690;11.770;2023-02-20T00:44:00;94276.91;;;5.20;100.00
59367;BME280;45163;47.690;11.770;2023-02-20T00:46:26;94269.25;;;5.29;100.00
59367;BME280;45163;47.690;11.770;2023-02-20T00:48:52;94263.47;;;5.34;100.00
59367;BME280;45163;47.690;11.770;2023-02-20T00:51:18;94270.03;;;5.30;100.00
59367;BME280;45163;47.690;11.770;2023-02-20T00:53:44;94269.59;;;5.24;100.00
59367;BME280;45163;47.690;11.770;2023-02-20T00:56:10;94276.94;;;5.23;100.00
59367;BME280;45163;47.690;11.770;2023-02-20T00:58:36;94278.56;;;5.32;100.00
59367;BME280;45163;47.690;11.770;2023-02-20T01:01:02;94269.22;;;5.25;100.00
59367;BME280;45163;47.690;11.770;2023-02-20T01:03:28;94273.84;;;5.21;100.00
59367;BME280;45163;47.690;11.770;2023-02-20T01:05:54;94271.09;;;5.18;100.00
59367;BME280;45163;47.690;11.770;2023-02-20T01:08:20;94263.75;;;5.15;100.00
59367;BME280;45163;47.690;11.770;2023-02-20T01:10:46;94265.69;;;5.18;100.00
59367;BME280;45163;47.690;11.770;2023-02-20T01:13:12;94267.28;;;5.22;100.00
59367;BME280;45163;47.690;11.770;2023-02-20T01:15:38;94268.78;;;5.16;100.00
59367;BME280;45163;47.690;11.770;2023-02-20T01:18:04;94268.75;;;5.13;100.00
59367;BME280;45163;47.690;11.770;2023-02-20T01:20:30;94269.56;;;5.20;100.00
59367;BME280;45163;47.690;11.770;2023-02-20T01:22:57;94258.38;;;5.22;100.00
59367;BME280;45163;47.690;11.770;2023-02-20T01:25:23;94272.69;;;5.22;100.00
59367;BME280;45163;47.690;11.770;2023-02-20T01:27:49;94262.28;;;5.28;100.00
59367;BME280;45163;47.690;11.770;2023-02-20T01:30:15;94260.75;;;5.27;100.00
59367;BME280;45163;47.690;11.770;2023-02-20T01:32:41;94261.88;;;5.26;100.00
59367;BME280;45163;47.690;11.770;2023-02-20T01:35:08;94261.47;;;5.24;100.00
59367;BME280;45163;47.690;11.770;2023-02-20T01:37:34;94264.94;;;5.21;100.00
59367;BME280;45163;47.690;11.770;2023-02-20T01:40:00;94255.63;;;5.15;100.00
59367;BME280;45163;47.690;11.770;2023-02-20T01:42:29;94258.38;;;5.22;100.00
59367;BME280;45163;47.690;11.770;2023-02-20T01:45:38;94254.13;;;5.21;100.00
59367;BME280;45163;47.690;11.770;2023-02-20T01:48:03;94257.19;;;5.16;100.00
59367;BME280;45163;47.690;11.770;2023-02-20T01:50:34;94254.06;;;5.14;100.00
59367;BME280;45163;47.690;11.770;2023-02-20T01:53:06;94258.66;;;5.10;100.00
59367;BME280;45163;47.690;11.770;2023-02-20T01:55:50;94252.16;;;5.14;100.00
59367;BME280;45163;47.690;11.770;2023-02-20T01:58:30;94250.25;;;5.18;100.00
59367;BME280;45163;47.690;11.770;2023-02-20T02:00:59;94245.63;;;5.22;100.00
59367;BME280;45163;47.690;11.770;2023-02-20T02:03:28;94253.31;;;5.17;100.00
59367;BME280;45163;47.690;11.770;2023-02-20T02:06:01;94254.13;;;5.21;100.00
59367;BME280;45163;47.690;11.770;2023-02-20T02:08:28;94257.22;;;5.23;100.00
59367;BME280;45163;47.690;11.770;2023-02-20T02:11:07;94256.84;;;5.24;100.00
59367;BME280;45163;47.690;11.770;2023-02-20T02:13:35;94256.81;;;5.21;100.00
59367;BME280;45163;47.690;11.770;2023-02-20T02:25:04;94257.63;;;5.25;100.00
59367;BME280;45163;47.690;11.770;2023-02-20T02:38:27;94224.41;;;5.32;100.00
59367;BME280;45163;47.690;11.770;2023-02-20T02:43:38;94227.88;;;5.29;100.00
59367;BME280;45163;47.690;11.770;2023-02-20T02:46:19;94222.47;;;5.32;100.00
59367;BME280;45163;47.690;11.770;2023-02-20T02:51:45;94231.78;;;5.38;100.00
59367;BME280;45163;47.690;11.770;2023-02-20T02:54:21;94232.56;;;5.35;100.00
59367;BME280;45163;47.690;11.770;2023-02-20T02:57:21;94221.75;;;5.42;100.00
59367;BME280;45163;47.690;11.770;2023-02-20T02:59:52;94234.91;;;5.40;100.00
59367;BME280;45163;47.690;11.770;2023-02-20T03:02:20;94242.59;;;5.35;100.00
59367;BME280;45163;47.690;11.770;2023-02-20T03:04:49;94231.75;;;5.31;100.00
59367;BME280;45163;47.690;11.770;2023-02-20T03:07:16;94229.06;;;5.31;100.00
59367;BME280;45163;47.690;11.770;2023-02-20T03:09:52;94220.53;;;5.29;100.00
59367;BME280;45163;47.690;11.770;2023-02-20T03:12:19;94218.22;;;5.31;100.00
59367;BME280;45163;47.690;11.770;2023-02-20T03:14:53;94224.41;;;5.32;100.00
59367;BME280;45163;47.690;11.770;2023-02-20T03:20:25;94226.34;;;5.35;100.00
59367;BME280;45163;47.690;11.770;2023-02-20T03:22:55;94229.06;;;5.35;100.00
59367;BME280;45163;47.690;11.770;2023-02-20T03:25:35;94234.50;;;5.38;100.00
59367;BME280;45163;47.690;11.770;2023-02-20T03:28:07;94229.06;;;5.35;100.00
59367;BME280;45163;47.690;11.770;2023-02-20T03:33:23;94230.66;;;5.39;100.00
59367;BME280;45163;47.690;11.770;2023-02-20T03:36:12;94221.78;;;5.46;100.00
59367;BME280;45163;47.690;11.770;2023-02-20T03:39:07;94223.28;;;5.36;100.00
59367;BME280;45163;47.690;11.770;2023-02-20T03:41:55;94224.78;;;5.30;100.00
59367;BME280;45163;47.690;11.770;2023-02-20T03:44:40;94225.28;;;5.50;100.00
59367;BME280;45163;47.690;11.770;2023-02-20T03:47:09;94239.16;;;5.41;100.00
59367;BME280;45163;47.690;11.770;2023-02-20T03:49:41;94240.28;;;5.37;100.00
59367;BME280;45163;47.690;11.770;2023-02-20T03:52:07;94227.13;;;5.32;100.00
59367;BME280;45163;47.690;11.770;2023-02-20T03:54:35;94227.94;;;5.39;100.00
59367;BME280;45163;47.690;11.770;2023-02-20T03:57:09;94218.22;;;5.35;100.00
59367;BME280;45163;47.690;11.770;2023-02-20T03:59:44;94220.50;;;5.25;100.00
59367;BME280;45163;47.690;11.770;2023-02-20T04:02:34;94231.31;;;5.22;100.00
59367;BME280;45163;47.690;11.770;2023-02-20T04:05:08;94224.00;;;5.30;100.00
59367;BME280;45163;47.690;11.770;2023-02-20T04:07:44;94230.16;;;5.19;100.00
59367;BME280;45163;47.690;11.770;2023-02-20T04:10:16;94224.75;;;5.23;100.00
59367;BME280;45163;47.690;11.770;2023-02-20T04:12:45;94236.69;;;5.15;100.00
59367;BME280;45163;47.690;11.770;2023-02-20T04:15:13;94250.63;;;5.20;100.00
59367;BME280;45163;47.690;11.770;2023-02-20T04:17:45;94246.38;;;5.19;100.00
59367;BME280;45163;47.690;11.770;2023-02-20T04:20:11;94246.34;;;5.16;100.00
59367;BME280;45163;47.690;11.770;2023-02-20T04:22:41;94243.56;;;5.05;100.00
59367;BME280;45163;47.690;11.770;2023-02-20T04:25:23;94242.84;;;5.12;100.00
59367;BME280;45163;47.690;11.770;2023-02-20T04:27:49;94242.53;;;5.24;100.00
59367;BME280;45163;47.690;11.770;2023-02-20T04:30:16;94243.63;;;5.12;100.00
59367;BME280;45163;47.690;11.770;2023-02-20T04:32:42;94240.81;;;5.02;100.00
59367;BME280;45163;47.690;11.770;2023-02-20T04:35:15;94238.44;;;4.89;100.00
59367;BME280;45163;47.690;11.770;2023-02-20T04:37:41;94247.75;;;4.95;100.00
59367;BME280;45163;47.690;11.770;2023-02-20T04:40:09;94250.00;;;4.86;100.00
59367;BME280;45163;47.690;11.770;2023-02-20T04:42:35;94244.19;;;4.84;100.00
59367;BME280;45163;47.690;11.770;2023-02-20T04:45:02;94239.25;;;4.93;100.00
59367;BME280;45163;47.690;11.770;2023-02-20T04:47:28;94233.78;;;4.86;100.00
59367;BME280;45163;47.690;11.770;2023-02-20T04:49:54;94238.63;;;4.66;100.00
59367;BME280;45163;47.690;11.770;2023-02-20T04:52:20;94242.03;;;4.60;100.00
59367;BME280;45163;47.690;11.770;2023-02-20T04:54:46;94240.81;;;4.50;100.00
59367;BME280;45163;47.690;11.770;2023-02-20T04:57:13;94234.19;;;4.44;100.00
59367;BME280;45163;47.690;11.770;2023-02-20T04:59:39;94233.44;;;4.43;100.00
59367;BME280;45163;47.690;11.770;2023-02-20T05:02:05;94239.16;;;4.38;100.00
59367;BME280;45163;47.690;11.770;2023-02-20T05:04:31;94238.75;;;4.36;100.00
59367;BME280;45163;47.690;11.770;2023-02-20T05:06:57;94234.09;;;4.33;100.00
59367;BME280;45163;47.690;11.770;2023-02-20T05:09:23;94244.13;;;4.33;100.00
59367;BME280;45163;47.690;11.770;2023-02-20T05:11:49;94237.50;;;4.27;100.00
59367;BME280;45163;47.690;11.770;2023-02-20T05:14:16;94243.56;;;4.16;100.00
59367;BME280;45163;47.690;11.770;2023-02-20T05:16:42;94245.78;;;4.07;100.00
59367;BME280;45163;47.690;11.770;2023-02-20T05:19:11;94255.44;;;4.08;100.00
59367;BME280;45163;47.690;11.770;2023-02-20T05:21:37;94251.50;;;3.98;100.00
59367;BME280;45163;47.690;11.770;2023-02-20T05:24:21;94250.69;;;3.94;100.00
59367;BME280;45163;47.690;11.770;2023-02-20T05:26:48;94247.50;;;3.85;100.00
59367;BME280;45163;47.690;11.770;2023-02-20T05:29:14;94250.00;;;3.71;100.00
59367;BME280;45163;47.690;11.770;2023-02-20T05:31:40;94247.59;;;3.62;100.00
59367;BME280;45163;47.690;11.770;2023-02-20T05:34:07;94246.25;;;3.49;100.00
59367;BME280;45163;47.690;11.770;2023-02-20T05:36:33;94249.91;;;3.34;100.00
59367;BME280;45163;47.690;11.770;2023-02-20T05:38:59;94252.81;;;3.21;100.00
59367;BME280;45163;47.690;11.770;2023-02-20T05:41:25;94259.25;;;3.13;100.00
59367;BME280;45163;47.690;11.770;2023-02-20T05:43:51;94262.91;;;2.98;100.00
59367;BME280;45163;47.690;11.770;2023-02-20T05:46:23;94265.44;;;2.87;100.00
59367;BME280;45163;47.690;11.770;2023-02-20T05:48:50;94262.63;;;2.80;100.00
59367;BME280;45163;47.690;11.770;2023-02-20T05:51:28;94259.88;;;2.77;100.00
59367;BME280;45163;47.690;11.770;2023-02-20T05:53:55;94255.09;;;2.66;100.00
59367;BME280;45163;47.690;11.770;2023-02-20T05:56:21;94257.19;;;2.54;100.00
59367;BME280;45163;47.690;11.770;2023-02-20T05:58:47;94264.72;;;2.44;100.00
59367;BME280;45163;47.690;11.770;2023-02-20T06:01:25;94256.75;;;2.29;100.00
59367;BME280;45163;47.690;11.770;2023-02-20T06:03:51;94272.00;;;2.21;100.00
59367;BME280;45163;47.690;11.770;2023-02-20T06:06:18;94267.28;;;2.14;100.00
59367;BME280;45163;47.690;11.770;2023-02-20T06:08:45;94262.59;;;2.11;100.00
59367;BME280;45163;47.690;11.770;2023-02-20T06:11:12;94260.22;;;2.06;100.00
59367;BME280;45163;47.690;11.770;2023-02-20T06:13:39;94267.09;;;2.04;100.00
59367;BME280;45163;47.690;11.770;2023-02-20T06:16:06;94268.94;;;1.99;100.00
59367;BME280;45163;47.690;11.770;2023-02-20T06:18:33;94263.84;;;1.94;100.00
59367;BME280;45163;47.690;11.770;2023-02-20T06:20:59;94273.06;;;1.93;100.00
59367;BME280;45163;47.690;11.770;2023-02-20T06:23:25;94279.63;;;1.96;100.00
59367;BME280;45163;47.690;11.770;2023-02-20T06:25:51;94274.81;;;2.05;100.00
59367;BME280;45163;47.690;11.770;2023-02-20T06:28:16;94277.59;;;2.32;100.00
59367;BME280;45163;47.690;11.770;2023-02-20T06:30:42;94277.56;;;2.51;100.00
59367;BME280;45163;47.690;11.770;2023-02-20T06:33:08;94268.81;;;2.58;100.00
59367;BME280;45163;47.690;11.770;2023-02-20T06:35:34;94271.63;;;2.65;100.00
59367;BME280;45163;47.690;11.770;2023-02-20T06:38:00;94282.75;;;2.63;100.00
59367;BME280;45163;47.690;11.770;2023-02-20T06:40:26;94286.13;;;2.57;100.00
59367;BME280;45163;47.690;11.770;2023-02-20T06:42:52;94286.34;;;2.48;100.00
59367;BME280;45163;47.690;11.770;2023-02-20T06:45:18;94292.47;;;2.45;100.00
59367;BME280;45163;47.690;11.770;2023-02-20T06:47:44;94304.72;;;2.42;100.00
59367;BME280;45163;47.690;11.770;2023-02-20T06:50:10;94309.84;;;2.47;100.00
59367;BME280;45163;47.690;11.770;2023-02-20T06:52:36;94308.53;;;2.61;100.00
59367;BME280;45163;47.690;11.770;2023-02-20T06:55:02;94318.75;;;2.74;100.00
59367;BME280;45163;47.690;11.770;2023-02-20T06:57:31;94321.66;;;2.85;100.00
59367;BME280;45163;47.690;11.770;2023-02-20T06:59:57;94322.53;;;2.93;100.00
59367;BME280;45163;47.690;11.770;2023-02-20T07:02:23;94313.00;;;2.99;100.00
59367;BME280;45163;47.690;11.770;2023-02-20T07:04:49;94323.16;;;3.09;100.00
59367;BME280;45163;47.690;11.770;2023-02-20T07:07:15;94321.00;;;3.18;100.00
59367;BME280;45163;47.690;11.770;2023-02-20T07:09:41;94321.06;;;3.22;100.00
59367;BME280;45163;47.690;11.770;2023-02-20T07:12:07;94323.78;;;3.22;100.00
59367;BME280;45163;47.690;11.770;2023-02-20T07:14:33;94319.94;;;3.23;100.00
59367;BME280;45163;47.690;11.770;2023-02-20T07:16:59;94326.09;;;3.23;100.00
59367;BME280;45163;47.690;11.770;2023-02-20T07:19:25;94327.69;;;3.28;100.00
59367;BME280;45163;47.690;11.770;2023-02-20T07:21:51;94321.28;;;3.36;100.00
59367;BME280;45163;47.690;11.770;2023-02-20T07:24:17;94317.16;;;3.46;100.00
59367;BME280;45163;47.690;11.770;2023-02-20T07:26:43;94317.59;;;3.48;100.00
59367;BME280;45163;47.690;11.770;2023-02-20T07:29:11;94321.19;;;3.59;100.00
59367;BME280;45163;47.690;11.770;2023-02-20T07:31:37;94310.38;;;3.56;100.00
59367;BME280;45163;47.690;11.770;2023-02-20T07:34:04;94296.56;;;3.61;100.00
59367;BME280;45163;47.690;11.770;2023-02-20T07:36:30;94302.72;;;3.61;100.00
59367;BME280;45163;47.690;11.770;2023-02-20T07:38:57;94298.25;;;3.72;100.00
59367;BME280;45163;47.690;11.770;2023-02-20T07:41:25;94288.28;;;3.80;100.00
59367;BME280;45163;47.690;11.770;2023-02-20T07:43:55;94288.06;;;3.92;100.00
59367;BME280;45163;47.690;11.770;2023-02-20T07:46:22;94295.63;;;4.10;100.00
59367;BME280;45163;47.690;11.770;2023-02-20T07:48:48;94295.69;;;4.17;100.00
59367;BME280;45163;47.690;11.770;2023-02-20T07:51:14;94290.41;;;4.28;100.00
59367;BME280;45163;47.690;11.770;2023-02-20T07:53:51;94294.75;;;4.36;100.00
59367;BME280;45163;47.690;11.770;2023-02-20T07:56:18;94289.06;;;4.48;100.00
59367;BME280;45163;47.690;11.770;2023-02-20T07:58:45;94291.59;;;4.71;100.00
59367;BME280;45163;47.690;11.770;2023-02-20T08:01:11;94297.16;;;4.89;100.00
59367;BME280;45163;47.690;11.770;2023-02-20T08:03:37;94293.03;;;5.02;100.00
59367;BME280;45163;47.690;11.770;2023-02-20T08:06:03;94289.25;;;5.17;100.00
59367;BME280;45163;47.690;11.770;2023-02-20T08:08:29;94280.84;;;5.30;100.00
59367;BME280;45163;47.690;11.770;2023-02-20T08:10:55;94283.22;;;5.38;100.00
59367;BME280;45163;47.690;11.770;2023-02-20T08:13:22;94283.34;;;5.60;100.00
59367;BME280;45163;47.690;11.770;2023-02-20T08:15:48;94276.81;;;5.68;100.00
59367;BME280;45163;47.690;11.770;2023-02-20T08:18:14;94279.97;;;5.81;100.00
59367;BME280;45163;47.690;11.770;2023-02-20T08:20:41;94281.16;;;5.83;100.00
59367;BME280;45163;47.690;11.770;2023-02-20T08:23:17;94276.97;;;5.96;100.00
59367;BME280;45163;47.690;11.770;2023-02-20T08:25:44;94273.88;;;5.94;100.00
59367;BME280;45163;47.690;11.770;2023-02-20T08:28:10;94266.97;;;6.08;100.00
59367;BME280;45163;47.690;11.770;2023-02-20T08:30:36;94255.38;;;6.18;100.00
59367;BME280;45163;47.690;11.770;2023-02-20T08:33:02;94260.84;;;6.32;100.00
59367;BME280;45163;47.690;11.770;2023-02-20T08:35:35;94253.09;;;6.38;100.00
59367;BME280;45163;47.690;11.770;2023-02-20T08:38:05;94258.53;;;6.34;100.00
59367;BME280;45163;47.690;11.770;2023-02-20T08:40:32;94252.38;;;6.66;100.00
59367;BME280;45163;47.690;11.770;2023-02-20T08:42:58;94246.97;;;6.66;100.00
59367;BME280;45163;47.690;11.770;2023-02-20T08:45:25;94238.44;;;6.92;100.00
59367;BME280;45163;47.690;11.770;2023-02-20T08:47:51;94233.00;;;7.07;100.00
59367;BME280;45163;47.690;11.770;2023-02-20T08:50:20;94236.44;;;7.46;100.00
59367;BME280;45163;47.690;11.770;2023-02-20T08:52:46;94227.78;;;7.84;100.00
59367;BME280;45163;47.690;11.770;2023-02-20T08:55:12;94220.06;;;7.75;100.00
59367;BME280;45163;47.690;11.770;2023-02-20T08:57:42;94219.53;;;8.05;100.00
59367;BME280;45163;47.690;11.770;2023-02-20T09:00:09;94218.78;;;8.05;100.00
59367;BME280;45163;47.690;11.770;2023-02-20T09:02:35;94205.44;;;8.28;100.00
59367;BME280;45163;47.690;11.770;2023-02-20T09:05:01;94207.16;;;8.70;100.00
59367;BME280;45163;47.690;11.770;2023-02-20T09:07:28;94190.97;;;8.49;100.00
59367;BME280;45163;47.690;11.770;2023-02-20T09:09:54;94184.47;;;8.25;100.00
59367;BME280;45163;47.690;11.770;2023-02-20T09:12:20;94183.69;;;8.28;100.00
59367;BME280;45163;47.690;11.770;2023-02-20T09:14:46;94189.88;;;8.32;100.00
59367;BME280;45163;47.690;11.770;2023-02-20T09:17:12;94189.56;;;8.19;100.00
59367;BME280;45163;47.690;11.770;2023-02-20T09:19:38;94194.28;;;8.08;100.00
59367;BME280;45163;47.690;11.770;2023-02-20T09:22:04;94197.09;;;7.90;100.00
59367;BME280;45163;47.690;11.770;2023-02-20T09:24:30;94193.25;;;7.77;100.00
59367;BME280;45163;47.690;11.770;2023-02-20T09:27:00;94181.59;;;7.77;100.00
59367;BME280;45163;47.690;11.770;2023-02-20T09:29:27;94187.38;;;7.89;100.00
59367;BME280;45163;47.690;11.770;2023-02-20T09:31:53;94188.56;;;7.88;100.00
59367;BME280;45163;47.690;11.770;2023-02-20T09:34:20;94179.50;;;8.13;100.00
59367;BME280;45163;47.690;11.770;2023-02-20T09:36:46;94176.25;;;8.36;100.00
59367;BME280;45163;47.690;11.770;2023-02-20T09:39:12;94178.16;;;8.46;100.00
59367;BME280;45163;47.690;11.770;2023-02-20T09:42:06;94177.28;;;8.56;100.00
59367;BME280;45163;47.690;11.770;2023-02-20T09:45:04;94182.25;;;8.72;100.00
59367;BME280;45163;47.690;11.770;2023-02-20T09:50:15;94161.03;;;8.49;100.00
59367;BME280;45163;47.690;11.770;2023-02-20T09:52:56;94151.81;;;8.32;100.00
59367;BME280;45163;47.690;11.770;2023-02-20T09:55:23;94151.25;;;7.96;100.00
59367;BME280;45163;47.690;11.770;2023-02-20T09:57:52;94151.81;;;8.32;100.00
59367;BME280;45163;47.690;11.770;2023-02-20T10:00:34;94145.84;;;10.33;100.00
59367;BME280;45163;47.690;11.770;2023-02-20T10:05:42;94130.09;;;14.41;100.00
59367;BME280;45163;47.690;11.770;2023-02-20T10:08:15;94120.72;;;15.03;100.00
59367;BME280;45163;47.690;11.770;2023-02-20T10:10:41;94116.25;;;16.40;100.00
59367;BME280;45163;47.690;11.770;2023-02-20T10:18:36;94119.59;;;18.17;81.79
59367;BME280;45163;47.690;11.770;2023-02-20T10:23:47;94100.56;;;19.28;53.74
59367;BME280;45163;47.690;11.770;2023-02-20T10:26:20;94101.00;;;20.57;55.02
59367;BME280;45163;47.690;11.770;2023-02-20T10:28:50;94093.66;;;20.89;38.47
59367;BME280;45163;47.690;11.770;2023-02-20T10:34:35;94083.41;;;20.96;42.70
59367;BME280;45163;47.690;11.770;2023-02-20T10:37:10;94068.22;;;22.82;48.09
59367;BME280;45163;47.690;11.770;2023-02-20T10:39:45;94069.75;;;22.20;36.24
59367;BME280;45163;47.690;11.770;2023-02-20T10:42:18;94058.56;;;21.68;39.55
59367;BME280;45163;47.690;11.770;2023-02-20T10:52:40;94029.53;;;21.69;32.87
59367;BME280;45163;47.690;11.770;2023-02-20T10:55:11;94021.38;;;23.83;37.85
59367;BME280;45163;47.690;11.770;2023-02-20T10:57:44;94018.59;;;23.95;36.40
59367;BME280;45163;47.690;11.770;2023-02-20T11:00:22;94021.69;;;24.70;36.58
59367;BME280;45163;47.690;11.770;2023-02-20T11:03:04;94016.41;;;23.45;31.49
59367;BME280;45163;47.690;11.770;2023-02-20T11:05:37;94014.09;;;24.42;27.86
59367;BME280;45163;47.690;11.770;2023-02-20T11:08:05;94011.56;;;25.58;25.03
59367;BME280;45163;47.690;11.770;2023-02-20T11:10:31;94008.00;;;24.60;24.69
59367;BME280;45163;47.690;11.770;2023-02-20T11:13:01;94001.38;;;24.69;23.80
59367;BME280;45163;47.690;11.770;2023-02-20T11:15:33;94008.97;;;24.24;26.10
59367;BME280;45163;47.690;11.770;2023-02-20T11:18:06;93993.31;;;22.84;26.88
59367;BME280;45163;47.690;11.770;2023-02-20T11:20:39;93993.66;;;23.63;25.10
59367;BME280;45163;47.690;11.770;2023-02-20T11:23:07;93986.56;;;22.17;23.27
59367;BME280;45163;47.690;11.770;2023-02-20T11:25:36;93981.25;;;21.00;24.95
59367;BME280;45163;47.690;11.770;2023-02-20T11:28:20;93979.25;;;21.00;28.33
59367;BME280;45163;47.690;11.770;2023-02-20T11:30:49;93976.75;;;21.69;27.39
59367;BME280;45163;47.690;11.770;2023-02-20T11:33:26;93976.41;;;21.87;26.09
59367;BME280;45163;47.690;11.770;2023-02-20T11:36:09;93975.97;;;23.01;25.81
59367;BME280;45163;47.690;11.770;2023-02-20T11:38:37;93971.91;;;23.67;23.26
59367;BME280;45163;47.690;11.770;2023-02-20T11:41:20;93964.81;;;25.95;21.58
59367;BME280;45163;47.690;11.770;2023-02-20T11:44:24;93962.47;;;25.11;22.67
59367;BME280;45163;47.690;11.770;2023-02-20T11:47:16;93960.19;;;27.18;20.73
59367;BME280;45163;47.690;11.770;2023-02-20T11:49:43;93956.56;;;26.14;23.02
59367;BME280;45163;47.690;11.770;2023-02-20T11:52:19;93954.97;;;25.36;21.24
59367;BME280;45163;47.690;11.770;2023-02-20T11:54:47;93956.31;;;26.12;19.32
59367;BME280;45163;47.690;11.770;2023-02-20T11:57:37;93944.03;;;25.43;20.95
59367;BME280;45163;47.690;11.770;2023-02-20T12:10:59;93934.75;;;25.65;22.91
59367;BME280;45163;47.690;11.770;2023-02-20T12:13:26;93924.41;;;24.91;23.93
59367;BME280;45163;47.690;11.770;2023-02-20T12:16:21;93920.41;;;25.86;22.20
59367;BME280;45163;47.690;11.770;2023-02-20T12:18:51;93920.72;;;25.29;24.67
59367;BME280;45163;47.690;11.770;2023-02-20T12:21:32;93928.13;;;25.68;24.70
59367;BME280;45163;47.690;11.770;2023-02-20T12:31:53;93913.59;;;25.34;26.32
59367;BME280;45163;47.690;11.770;2023-02-20T12:34:49;93912.78;;;24.81;26.13
59367;BME280;45163;47.690;11.770;2023-02-20T12:43:33;93910.41;;;25.02;26.48
59367;BME280;45163;47.690;11.770;2023-02-20T12:51:43;93898.13;;;24.58;26.75
59367;BME280;45163;47.690;11.770;2023-02-20T12:54:30;93886.47;;;23.53;26.30
59367;BME280;45163;47.690;11.770;2023-02-20T12:57:18;93887.53;;;25.56;24.01
59367;BME280;45163;47.690;11.770;2023-02-20T12:59:55;93882.75;;;25.45;25.62
59367;BME280;45163;47.690;11.770;2023-02-20T13:05:25;93876.94;;;25.85;24.54
59367;BME280;45163;47.690;11.770;2023-02-20T13:08:00;93875.72;;;24.80;26.39
59367;BME280;45163;47.690;11.770;2023-02-20T13:10:45;93855.16;;;25.66;23.95
59367;BME280;45163;47.690;11.770;2023-02-20T13:13:13;93858.41;;;25.40;24.50
59367;BME280;45163;47.690;11.770;2023-02-20T13:21:10;93854.44;;;25.24;24.71
59367;BME280;45163;47.690;11.770;2023-02-20T13:23:37;93848.16;;;25.07;26.39
59367;BME280;45163;47.690;11.770;2023-02-20T13:29:20;93848.91;;;24.55;26.63
59367;BME280;45163;47.690;11.770;2023-02-20T13:31:56;93838.88;;;23.96;25.78
59367;BME280;45163;47.690;11.770;2023-02-20T13:36:55;93827.56;;;24.57;26.56
59367;BME280;45163;47.690;11.770;2023-02-20T13:57:47;93816.81;;;23.30;26.70
59367;BME280;45163;47.690;11.770;2023-02-20T14:00:49;93818.09;;;23.91;26.84
59367;BME280;45163;47.690;11.770;2023-02-20T14:08:34;93815.25;;;21.93;29.35
59367;BME280;45163;47.690;11.770;2023-02-20T14:11:05;93815.41;;;21.41;30.21
59367;BME280;45163;47.690;11.770;2023-02-20T14:13:31;93816.88;;;21.36;30.59
59367;BME280;45163;47.690;11.770;2023-02-20T14:15:59;93811.50;;;21.64;29.99
59367;BME280;45163;47.690;11.770;2023-02-20T14:18:33;93817.72;;;20.70;30.96
59367;BME280;45163;47.690;11.770;2023-02-20T14:21:20;93811.81;;;20.22;31.56
59367;BME280;45163;47.690;11.770;2023-02-20T14:23:49;93814.56;;;19.51;32.59
59367;BME280;45163;47.690;11.770;2023-02-20T14:26:31;93811.25;;;18.34;32.53
59367;BME280;45163;47.690;11.770;2023-02-20T14:28:59;93814.31;;;18.12;34.90
59367;BME280;45163;47.690;11.770;2023-02-20T14:31:37;93814.03;;;17.86;35.26
59367;BME280;45163;47.690;11.770;2023-02-20T14:34:23;93820.28;;;17.54;37.11
59367;BME280;45163;47.690;11.770;2023-02-20T14:42:02;93819.75;;;16.52;39.16
59367;BME280;45163;47.690;11.770;2023-02-20T14:44:30;93824.75;;;15.89;40.77
59367;BME280;45163;47.690;11.770;2023-02-20T14:47:09;93826.50;;;15.56;43.28
59367;BME280;45163;47.690;11.770;2023-02-20T14:49:37;93823.22;;;15.08;44.78
59367;BME280;45163;47.690;11.770;2023-02-20T14:54:42;93823.06;;;14.58;48.71
59367;BME280;45163;47.690;11.770;2023-02-20T14:57:13;93820.28;;;14.49;48.58
59367;BME280;45163;47.690;11.770;2023-02-20T14:59:40;93817.72;;;14.20;51.07
59367;BME280;45163;47.690;11.770;2023-02-20T15:04:53;93812.78;;;14.50;51.38
59367;BME280;45163;47.690;11.770;2023-02-20T15:07:23;93804.59;;;14.59;52.82
59367;BME280;45163;47.690;11.770;2023-02-20T15:09:53;93799.25;;;14.77;51.28
59367;BME280;45163;47.690;11.770;2023-02-20T15:12:49;93796.06;;;15.10;50.36
59367;BME280;45163;47.690;11.770;2023-02-20T15:15:21;93793.94;;;15.63;46.76
59367;BME280;45163;47.690;11.770;2023-02-20T15:17:47;93791.56;;;15.84;43.15
59367;BME280;45163;47.690;11.770;2023-02-20T15:25:38;93776.06;;;15.18;46.61
59367;BME280;45163;47.690;11.770;2023-02-20T15:33:28;93779.09;;;14.36;49.65